Time;durP1;ratioP1;P1;durP2;ratioP2;P2;SDS_P1;SDS_P2;PMS_P1;PMS_P2;Temp;Humidity;BMP_temperature;BMP_pressure;BME280_temperature;BME280_humidity;BME280_pressure;Samples;Min_cycle;Max_cycle;Signal;HPM_P1;HPM_P2
2022/12/24 00:01:44;;;;;;;3.60;1.60;;;12.00;99.90;;;;;;6039466;23;20435;-77
2022/12/24 00:04:11;;;;;;;3.78;1.50;;;12.00;99.90;;;;;;6039506;23;20201;-77
2022/12/24 00:06:38;;;;;;;7.27;2.40;;;12.00;99.90;;;;;;6014471;23;20255;-77
2022/12/24 00:09:05;;;;;;;3.73;1.80;;;12.00;99.90;;;;;;6014356;23;20428;-77
2022/12/24 00:11:33;;;;;;;5.40;1.73;;;12.10;99.90;;;;;;6038561;23;20506;-76
2022/12/24 00:14:01;;;;;;;5.07;2.03;;;12.00;99.90;;;;;;6010228;23;20852;-76
2022/12/24 00:16:29;;;;;;;6.30;2.30;;;12.00;99.90;;;;;;6010772;23;20446;-77
2022/12/24 00:18:56;;;;;;;3.85;1.60;;;12.00;99.90;;;;;;6015450;23;20592;-77
2022/12/24 00:21:23;;;;;;;5.40;2.33;;;12.00;99.90;;;;;;5993470;23;20193;-77
2022/12/24 00:23:50;;;;;;;4.20;1.67;;;12.00;99.90;;;;;;6039189;23;20507;-76
2022/12/24 00:26:17;;;;;;;7.72;1.83;;;12.00;99.90;;;;;;6038733;23;20217;-76
2022/12/24 00:28:44;;;;;;;5.90;2.13;;;12.00;99.90;;;;;;6012939;23;20196;-76
2022/12/24 00:31:15;;;;;;;5.30;1.58;;;11.90;99.90;;;;;;6039010;23;20371;-76
2022/12/24 00:33:43;;;;;;;6.20;2.10;;;11.90;99.90;;;;;;6038676;23;20620;-76
2022/12/24 00:36:10;;;;;;;4.60;1.67;;;11.90;99.90;;;;;;6013643;23;20193;-76
2022/12/24 00:38:38;;;;;;;7.55;2.10;;;11.90;99.90;;;;;;6038944;23;20620;-76
2022/12/24 00:41:23;;;;;;;6.80;1.77;;;12.00;99.90;;;;;;6038644;23;20220;-76
2022/12/24 00:43:51;;;;;;;5.35;2.03;;;12.00;99.90;;;;;;6038825;23;20189;-76
2022/12/24 00:46:19;;;;;;;4.38;2.00;;;12.00;99.90;;;;;;6014090;23;20273;-77
2022/12/24 00:48:47;;;;;;;6.15;2.00;;;12.10;99.90;;;;;;6038847;23;20190;-76
2022/12/24 00:51:14;;;;;;;8.30;2.17;;;12.10;99.90;;;;;;6039058;23;20208;-77
2022/12/24 00:53:41;;;;;;;5.72;1.75;;;12.20;99.90;;;;;;6040277;23;20194;-76
2022/12/24 00:56:08;;;;;;;8.45;2.55;;;12.20;99.90;;;;;;6039010;23;20194;-76
2022/12/24 00:58:36;;;;;;;5.05;1.58;;;12.20;99.90;;;;;;6039547;23;20213;-76
2022/12/24 01:01:04;;;;;;;4.97;1.77;;;12.30;99.90;;;;;;6013874;23;20193;-76
2022/12/24 01:03:35;;;;;;;6.32;2.00;;;12.30;99.90;;;;;;6040358;23;20256;-77
2022/12/24 01:06:01;;;;;;;6.03;1.97;;;12.30;99.90;;;;;;6038513;23;20194;-76
2022/12/24 01:08:29;;;;;;;6.45;2.05;;;12.30;99.90;;;;;;6039655;23;20878;-76
2022/12/24 01:10:56;;;;;;;4.78;1.75;;;12.30;99.90;;;;;;6040463;23;20201;-76
2022/12/24 01:13:25;;;;;;;5.95;2.00;;;12.20;99.90;;;;;;6039265;23;20208;-76
2022/12/24 01:15:52;;;;;;;4.57;1.88;;;12.20;99.90;;;;;;6043361;23;20205;-77
2022/12/24 01:18:19;;;;;;;5.80;2.42;;;12.20;99.90;;;;;;6014293;23;20214;-76
2022/12/24 01:20:56;;;;;;;5.57;2.00;;;12.10;99.90;;;;;;6014067;23;20216;-77
2022/12/24 01:23:23;;;;;;;6.47;1.85;;;12.00;99.90;;;;;;6039371;23;20193;-77
2022/12/24 01:25:50;;;;;;;6.00;1.75;;;11.90;99.90;;;;;;6041607;23;20280;-77
2022/12/24 01:28:18;;;;;;;5.40;1.85;;;11.80;99.90;;;;;;6042845;23;20197;-77
2022/12/24 01:30:45;;;;;;;6.68;2.33;;;11.70;99.90;;;;;;6039469;23;20197;-77
2022/12/24 01:33:12;;;;;;;6.28;2.40;;;11.60;99.90;;;;;;6036729;23;20229;-77
2022/12/24 01:35:40;;;;;;;7.82;2.70;;;11.50;99.90;;;;;;6033611;23;20235;-77
2022/12/24 01:38:10;;;;;;;7.80;2.15;;;11.50;99.90;;;;;;6034188;23;20205;-77
2022/12/24 01:43:23;;;;;;;8.20;2.13;;;11.20;99.90;;;;;;6037465;23;20189;-77
2022/12/24 01:45:52;;;;;;;6.32;2.25;;;11.10;99.90;;;;;;6038736;23;20216;-77
2022/12/24 01:48:35;;;;;;;6.68;1.92;;;11.00;99.90;;;;;;6038653;23;20232;-78
2022/12/24 01:51:07;;;;;;;7.78;2.67;;;11.00;99.90;;;;;;6033847;23;20221;-77
2022/12/24 01:53:39;;;;;;;8.13;2.70;;;11.00;99.90;;;;;;6011281;23;20630;-77
2022/12/24 01:56:07;;;;;;;7.32;2.17;;;11.00;99.90;;;;;;6036420;23;20631;-78
2022/12/24 01:58:37;;;;;;;6.60;2.08;;;10.90;99.90;;;;;;6038600;23;20287;-77
2022/12/24 02:01:05;;;;;;;8.48;2.45;;;10.90;99.90;;;;;;6051903;23;20208;-77
2022/12/24 02:03:32;;;;;;;8.93;2.53;;;10.90;99.90;;;;;;6046918;23;20197;-77
2022/12/24 02:06:00;;;;;;;6.22;1.90;;;10.90;99.90;;;;;;6040382;23;20209;-77
2022/12/24 02:08:38;;;;;;;6.88;2.20;;;10.90;99.90;;;;;;6014940;23;20308;-77
2022/12/24 02:11:12;;;;;;;8.48;2.67;;;10.90;99.90;;;;;;5992050;23;20631;-77
2022/12/24 02:13:40;;;;;;;13.48;3.35;;;10.90;99.90;;;;;;5987377;23;20193;-76
2022/12/24 02:16:21;;;;;;;7.60;2.90;;;10.90;99.90;;;;;;6011990;23;20200;-77
2022/12/24 02:18:58;;;;;;;7.10;2.20;;;10.90;99.90;;;;;;6008644;23;20646;-77
2022/12/24 02:21:51;;;;;;;8.25;3.03;;;10.90;99.90;;;;;;6041399;23;20237;-77
2022/12/24 02:24:40;;;;;;;7.53;2.40;;;10.90;99.90;;;;;;6038451;23;20201;-77
2022/12/24 02:27:21;;;;;;;7.32;2.47;;;10.90;99.90;;;;;;6041618;23;20193;-77
2022/12/24 02:30:17;;;;;;;9.75;2.80;;;10.90;99.90;;;;;;6041384;23;20193;-77
2022/12/24 02:33:05;;;;;;;6.53;2.03;;;10.90;99.90;;;;;;6016474;23;20224;-77
2022/12/24 02:35:42;;;;;;;6.50;2.40;;;10.90;99.90;;;;;;6017187;23;20199;-77
2022/12/24 02:38:17;;;;;;;8.90;2.55;;;10.90;99.90;;;;;;5993854;23;20213;-77
2022/12/24 02:40:48;;;;;;;5.35;2.85;;;10.90;99.90;;;;;;6042294;23;20204;-77
2022/12/24 02:43:24;;;;;;;6.32;2.20;;;10.90;99.90;;;;;;6042187;23;20695;-77
2022/12/24 02:45:57;;;;;;;7.90;2.97;;;10.90;99.90;;;;;;6041581;23;20200;-77
2022/12/24 02:48:27;;;;;;;8.35;2.33;;;10.90;99.90;;;;;;6040499;23;20667;-77
2022/12/24 02:50:56;;;;;;;5.05;2.20;;;10.90;99.90;;;;;;6038469;23;20251;-77
2022/12/24 02:53:23;;;;;;;5.65;2.45;;;10.90;99.90;;;;;;6014074;23;20549;-77
2022/12/24 02:56:08;;;;;;;6.60;2.55;;;10.90;99.90;;;;;;6039620;23;20647;-77
2022/12/24 02:58:46;;;;;;;5.72;3.00;;;10.90;99.90;;;;;;6037701;23;20240;-77
2022/12/24 03:01:22;;;;;;;7.25;2.75;;;10.90;99.90;;;;;;6037817;23;20219;-77
2022/12/24 03:04:01;;;;;;;7.25;2.00;;;10.90;99.90;;;;;;6035829;23;20201;-77
2022/12/24 03:06:39;;;;;;;7.45;2.42;;;10.90;99.90;;;;;;6034927;23;20235;-77
2022/12/24 03:09:13;;;;;;;7.32;2.60;;;11.00;99.90;;;;;;6052349;23;20196;-75
2022/12/24 03:11:48;;;;;;;8.40;2.40;;;10.90;99.90;;;;;;6054651;23;20200;-77
2022/12/24 03:14:16;;;;;;;4.82;2.10;;;10.90;99.90;;;;;;6056267;23;20236;-77
2022/12/24 03:16:45;;;;;;;11.55;3.60;;;10.90;99.90;;;;;;6030474;23;20181;-77
2022/12/24 03:19:12;;;;;;;11.65;3.20;;;10.90;99.90;;;;;;6054344;23;20240;-77
2022/12/24 03:21:41;;;;;;;10.55;2.92;;;10.80;99.90;;;;;;6042059;23;20229;-77
2022/12/24 03:24:09;;;;;;;6.97;2.58;;;10.80;99.90;;;;;;6040443;23;20244;-76
2022/12/24 03:26:38;;;;;;;9.98;3.03;;;10.80;99.90;;;;;;5991766;23;20197;-76
2022/12/24 03:29:06;;;;;;;7.78;2.78;;;10.90;99.90;;;;;;6039059;23;20223;-76
2022/12/24 03:31:44;;;;;;;9.70;2.80;;;10.90;99.90;;;;;;6039834;23;20282;-76
2022/12/24 03:34:12;;;;;;;5.55;2.30;;;10.90;99.90;;;;;;6039703;23;20216;-76
2022/12/24 03:36:40;;;;;;;6.80;2.50;;;10.90;99.90;;;;;;6015671;23;20220;-76
2022/12/24 03:39:08;;;;;;;8.10;2.50;;;10.90;99.90;;;;;;6039105;23;20225;-77
2022/12/24 03:41:35;;;;;;;9.02;2.50;;;10.90;99.90;;;;;;6040742;23;20247;-76
2022/12/24 03:44:03;;;;;;;5.97;2.05;;;10.90;99.90;;;;;;6014196;23;20205;-77
2022/12/24 03:46:30;;;;;;;7.13;2.95;;;10.90;99.90;;;;;;6039027;23;20693;-76
2022/12/24 03:48:59;;;;;;;9.10;2.42;;;10.90;99.90;;;;;;6038859;23;20224;-76
2022/12/24 03:51:27;;;;;;;13.70;3.38;;;10.90;99.90;;;;;;6037206;23;20193;-76
2022/12/24 03:53:54;;;;;;;6.43;2.13;;;10.90;99.90;;;;;;6037673;23;20264;-76
2022/12/24 03:56:21;;;;;;;7.53;2.47;;;10.90;99.90;;;;;;6038922;23;20193;-76
2022/12/24 03:58:49;;;;;;;8.55;2.53;;;10.90;99.90;;;;;;6038503;23;20214;-76
2022/12/24 04:01:17;;;;;;;6.07;2.30;;;10.90;99.90;;;;;;6012917;23;20213;-76
2022/12/24 04:03:44;;;;;;;7.30;2.60;;;10.90;99.90;;;;;;6036886;23;20201;-76
2022/12/24 04:06:16;;;;;;;6.22;2.53;;;10.90;99.90;;;;;;6040418;23;20194;-76
2022/12/24 04:08:43;;;;;;;7.53;3.15;;;10.90;99.90;;;;;;6040736;23;20185;-76
2022/12/24 04:11:14;;;;;;;8.50;2.58;;;10.80;99.90;;;;;;6040445;23;20555;-76
2022/12/24 04:13:41;;;;;;;6.45;2.58;;;10.80;99.90;;;;;;6013387;23;20197;-77
2022/12/24 04:16:11;;;;;;;7.60;2.60;;;10.70;99.90;;;;;;6035271;23;20208;-77
2022/12/24 04:18:39;;;;;;;6.97;2.63;;;10.70;99.90;;;;;;6010264;23;20655;-77
2022/12/24 04:21:07;;;;;;;11.70;2.88;;;10.60;99.90;;;;;;6036437;23;20193;-76
2022/12/24 04:23:38;;;;;;;7.70;2.60;;;10.50;99.90;;;;;;6012771;23;20197;-77
2022/12/24 04:26:07;;;;;;;6.45;2.67;;;10.50;99.90;;;;;;6038193;23;20201;-76
2022/12/24 04:28:35;;;;;;;10.30;3.08;;;10.50;99.90;;;;;;6011689;23;20280;-76
2022/12/24 04:31:04;;;;;;;5.85;2.45;;;10.40;99.90;;;;;;6035368;23;20193;-76
2022/12/24 04:33:31;;;;;;;9.18;3.35;;;10.50;99.90;;;;;;6035219;23;20189;-76
2022/12/24 04:35:59;;;;;;;6.43;2.90;;;10.50;99.90;;;;;;6035756;23;20190;-76
2022/12/24 04:38:26;;;;;;;7.18;2.60;;;10.50;99.90;;;;;;6036020;23;20229;-76
2022/12/24 04:41:00;;;;;;;10.57;3.10;;;10.40;99.90;;;;;;6036485;23;20259;-76
2022/12/24 04:43:28;;;;;;;7.43;3.20;;;10.40;99.90;;;;;;6035930;23;20355;-77
2022/12/24 04:45:55;;;;;;;7.15;2.97;;;10.40;99.90;;;;;;6010243;23;20193;-77
2022/12/24 04:48:23;;;;;;;6.90;2.75;;;10.40;99.90;;;;;;6035819;23;20257;-77
2022/12/24 04:50:50;;;;;;;6.63;2.83;;;10.40;99.90;;;;;;6036505;23;20220;-77
2022/12/24 04:53:17;;;;;;;7.90;2.60;;;10.40;99.90;;;;;;6038490;23;20216;-77
2022/12/24 04:55:45;;;;;;;7.65;2.78;;;10.40;99.90;;;;;;6047792;23;20212;-77
2022/12/24 04:58:14;;;;;;;6.63;2.67;;;10.40;99.90;;;;;;6025967;23;20181;-76
2022/12/24 05:00:41;;;;;;;9.00;2.92;;;10.40;99.90;;;;;;5988721;23;20209;-77
2022/12/24 05:03:09;;;;;;;9.70;2.85;;;10.40;99.90;;;;;;5989952;23;20193;-76
2022/12/24 05:05:36;;;;;;;9.20;2.80;;;10.40;99.90;;;;;;6008541;23;20280;-77
2022/12/24 05:08:04;;;;;;;6.90;2.90;;;10.30;99.90;;;;;;6008723;23;20194;-77
2022/12/24 05:10:31;;;;;;;9.20;3.28;;;10.30;99.90;;;;;;5980667;23;20270;-76
2022/12/24 05:12:59;;;;;;;9.55;2.60;;;10.20;99.90;;;;;;5981054;24;20297;-76
2022/12/24 05:15:27;;;;;;;7.85;2.60;;;10.20;99.90;;;;;;5980920;24;20208;-77
2022/12/24 05:17:54;;;;;;;6.78;2.80;;;10.20;99.90;;;;;;5980398;24;20198;-76
2022/12/24 05:20:22;;;;;;;6.70;2.50;;;10.20;99.90;;;;;;5980592;23;20210;-76
2022/12/24 05:28:31;;;;;;;8.38;2.80;;;10.20;99.90;;;;;;5907980;24;20258;-77
2022/12/24 05:31:00;;;;;;;7.05;3.00;;;10.20;99.90;;;;;;5979024;23;20198;-77
2022/12/24 05:33:27;;;;;;;9.25;2.90;;;10.10;99.90;;;;;;6010777;23;20190;-77
2022/12/24 05:35:54;;;;;;;9.13;2.83;;;10.10;99.90;;;;;;5984724;23;20198;-77
2022/12/24 05:38:22;;;;;;;7.90;3.22;;;10.10;99.90;;;;;;6011242;23;20585;-77
2022/12/24 05:40:49;;;;;;;8.18;3.10;;;10.10;99.90;;;;;;5988895;23;20202;-76
2022/12/24 05:43:16;;;;;;;3.90;2.30;;;10.00;99.90;;;;;;5982997;24;20633;-76
2022/12/24 05:45:43;;;;;;;9.23;3.00;;;9.90;99.90;;;;;;5983193;24;20210;-76
2022/12/24 05:48:11;;;;;;;10.38;3.08;;;9.80;99.90;;;;;;5983086;24;20195;-77
2022/12/24 05:50:40;;;;;;;6.28;2.70;;;9.70;99.90;;;;;;5982146;23;20259;-76
2022/12/24 05:53:07;;;;;;;7.95;3.17;;;9.70;99.90;;;;;;5997644;23;20194;-77
2022/12/24 05:55:34;;;;;;;6.85;2.80;;;9.70;99.90;;;;;;6012846;23;20540;-77
2022/12/24 05:58:01;;;;;;;6.45;2.70;;;9.60;99.90;;;;;;6013560;23;20197;-77
2022/12/24 06:00:29;;;;;;;5.93;2.80;;;9.60;99.90;;;;;;6011760;23;20273;-77
2022/12/24 06:02:55;;;;;;;11.98;3.50;;;9.60;99.90;;;;;;5989484;23;20221;-77
2022/12/24 06:05:24;;;;;;;10.07;3.05;;;9.50;99.90;;;;;;5983686;24;20242;-76
2022/12/24 06:07:51;;;;;;;6.55;3.15;;;9.50;99.90;;;;;;5983160;24;20281;-76
2022/12/24 06:10:18;;;;;;;6.38;2.70;;;9.40;99.90;;;;;;5983268;23;20246;-77
2022/12/24 06:12:45;;;;;;;9.57;2.80;;;9.40;99.90;;;;;;5983852;24;20203;-77
2022/12/24 06:15:13;;;;;;;8.18;2.70;;;9.40;99.90;;;;;;5983681;24;20242;-76
2022/12/24 06:17:40;;;;;;;8.30;3.42;;;9.40;99.90;;;;;;5960075;23;20198;-77
2022/12/24 06:20:08;;;;;;;9.25;3.17;;;9.30;99.90;;;;;;5986791;23;20229;-76
2022/12/24 06:22:37;;;;;;;8.85;2.50;;;9.30;99.90;;;;;;5982420;24;20194;-77
2022/12/24 06:25:05;;;;;;;9.32;2.88;;;9.30;99.90;;;;;;5982751;24;20274;-77
2022/12/24 06:27:32;;;;;;;8.15;2.70;;;9.30;99.90;;;;;;5982811;23;20257;-77
2022/12/24 06:29:59;;;;;;;7.80;2.55;;;9.30;99.90;;;;;;5957102;24;20251;-77
2022/12/24 06:32:27;;;;;;;4.90;2.35;;;9.40;99.90;;;;;;5981798;24;20258;-76
2022/12/24 06:34:54;;;;;;;5.50;2.50;;;9.30;99.90;;;;;;5934464;24;20194;-76
2022/12/24 06:37:21;;;;;;;5.90;3.15;;;9.30;99.90;;;;;;5986761;23;20250;-76
2022/12/24 06:39:49;;;;;;;6.38;2.90;;;9.30;99.90;;;;;;5957098;24;20546;-76
2022/12/24 06:42:17;;;;;;;8.73;3.10;;;9.30;99.90;;;;;;5982755;24;20195;-77
2022/12/24 06:44:44;;;;;;;5.10;2.65;;;9.30;99.90;;;;;;5982878;23;20198;-76
2022/12/24 06:47:11;;;;;;;6.10;2.50;;;9.40;99.90;;;;;;5982701;24;20226;-76
2022/12/24 06:49:38;;;;;;;10.30;3.20;;;9.40;99.90;;;;;;5982539;24;20592;-76
2022/12/24 06:52:06;;;;;;;9.00;2.65;;;9.40;99.90;;;;;;5957062;24;20285;-76
2022/12/24 06:54:33;;;;;;;6.97;2.90;;;9.40;99.90;;;;;;6006115;23;20197;-77
2022/12/24 06:57:01;;;;;;;10.50;2.80;;;9.50;99.90;;;;;;6010628;23;20197;-77
2022/12/24 06:59:29;;;;;;;6.95;2.88;;;9.60;99.90;;;;;;5982971;23;20232;-76
2022/12/24 07:01:56;;;;;;;6.47;2.60;;;9.60;99.90;;;;;;5981942;24;20201;-76
2022/12/24 07:04:23;;;;;;;7.63;2.10;;;9.70;99.90;;;;;;5982370;23;20258;-77
2022/12/24 07:06:50;;;;;;;5.40;2.25;;;10.00;99.90;;;;;;5957817;24;20233;-76
2022/12/24 07:09:17;;;;;;;5.80;2.13;;;9.80;99.90;;;;;;5982237;24;20217;-76
2022/12/24 07:11:44;;;;;;;5.68;1.95;;;9.90;99.90;;;;;;5982313;23;20308;-76
2022/12/24 07:14:13;;;;;;;8.75;3.10;;;9.90;99.90;;;;;;5934260;24;20194;-76
2022/12/24 07:16:40;;;;;;;7.28;2.92;;;9.90;99.90;;;;;;5981771;24;20199;-76
2022/12/24 07:19:07;;;;;;;9.10;2.70;;;9.90;99.90;;;;;;5982402;24;20624;-76
2022/12/24 07:21:34;;;;;;;8.80;2.30;;;9.90;99.90;;;;;;5982664;23;20560;-76
2022/12/24 07:24:02;;;;;;;8.13;2.55;;;10.00;99.90;;;;;;5982249;24;20225;-76
2022/12/24 07:26:29;;;;;;;4.82;2.10;;;10.00;99.90;;;;;;5982231;24;20194;-76
2022/12/24 07:28:57;;;;;;;4.07;2.58;;;9.90;99.90;;;;;;5981695;24;20593;-76
2022/12/24 07:31:25;;;;;;;7.57;2.72;;;9.80;99.90;;;;;;5981854;23;20199;-76
2022/12/24 07:33:52;;;;;;;9.50;3.33;;;9.70;99.90;;;;;;5956776;24;20206;-75
2022/12/24 07:36:21;;;;;;;8.55;4.00;;;9.70;99.90;;;;;;5980431;24;20194;-76
2022/12/24 07:38:48;;;;;;;6.07;2.97;;;9.70;99.90;;;;;;5985868;23;20612;-75
2022/12/24 07:41:15;;;;;;;8.43;3.10;;;9.60;99.90;;;;;;6008533;23;20225;-75
2022/12/24 07:43:42;;;;;;;6.75;2.13;;;9.60;99.90;;;;;;6008438;23;20754;-75
2022/12/24 07:46:09;;;;;;;8.50;2.80;;;9.60;99.90;;;;;;6000364;23;20221;-76
2022/12/24 07:48:38;;;;;;;7.38;2.63;;;9.70;99.90;;;;;;5982130;24;20191;-76
2022/12/24 07:51:06;;;;;;;8.82;2.53;;;9.80;99.90;;;;;;5982185;24;20190;-77
2022/12/24 07:53:33;;;;;;;5.63;2.60;;;9.90;99.90;;;;;;5982013;24;20191;-77
2022/12/24 07:56:01;;;;;;;7.45;2.97;;;9.90;99.90;;;;;;5978800;23;20191;-77
2022/12/24 07:58:28;;;;;;;5.97;2.40;;;10.00;99.90;;;;;;5994082;23;20238;-77
2022/12/24 08:00:57;;;;;;;8.40;2.80;;;10.00;99.90;;;;;;6024336;23;20222;-76
2022/12/24 08:03:24;;;;;;;6.10;2.75;;;10.00;99.90;;;;;;6015911;23;20194;-76
2022/12/24 08:05:53;;;;;;;6.57;2.42;;;10.00;99.90;;;;;;6014482;23;20305;-77
2022/12/24 08:08:20;;;;;;;7.57;3.00;;;10.00;99.90;;;;;;6011139;23;20230;-76
2022/12/24 08:10:47;;;;;;;4.88;2.08;;;9.90;99.90;;;;;;6010680;23;20629;-76
2022/12/24 08:13:15;;;;;;;15.45;3.30;;;9.90;99.90;;;;;;5985359;23;20221;-76
2022/12/24 08:15:42;;;;;;;9.45;3.55;;;9.90;99.90;;;;;;6010834;23;20236;-77
2022/12/24 08:18:10;;;;;;;5.30;2.40;;;9.50;99.90;;;;;;6009624;23;20562;-76
2022/12/24 08:20:39;;;;;;;5.68;2.20;;;9.80;99.90;;;;;;5985568;23;20227;-76
2022/12/24 08:23:08;;;;;;;7.35;2.70;;;9.80;99.90;;;;;;5985114;23;20684;-76
2022/12/24 08:25:36;;;;;;;10.55;2.85;;;9.90;99.90;;;;;;6010485;23;20234;-76
2022/12/24 08:28:04;;;;;;;8.45;2.95;;;9.90;99.90;;;;;;5994562;23;20190;-76
2022/12/24 08:30:31;;;;;;;6.80;2.65;;;10.00;99.90;;;;;;5957707;24;20190;-77
2022/12/24 08:32:58;;;;;;;4.30;2.55;;;10.10;99.90;;;;;;5982285;24;20198;-76
2022/12/24 08:35:25;;;;;;;5.63;2.25;;;10.10;99.90;;;;;;5981753;23;20317;-76
2022/12/24 08:37:52;;;;;;;9.23;3.30;;;10.10;99.90;;;;;;5981192;24;20207;-76
2022/12/24 08:40:21;;;;;;;8.85;3.28;;;10.20;99.90;;;;;;5938975;24;20215;-76
2022/12/24 08:42:49;;;;;;;6.10;2.63;;;10.20;99.90;;;;;;5981914;24;20214;-76
2022/12/24 08:45:16;;;;;;;11.93;3.13;;;10.20;99.90;;;;;;5981175;24;20281;-76
2022/12/24 08:47:43;;;;;;;6.60;2.50;;;10.20;99.90;;;;;;5981114;24;20531;-76
2022/12/24 08:50:12;;;;;;;6.10;2.47;;;10.20;99.90;;;;;;5973045;23;20274;-76
2022/12/24 08:52:39;;;;;;;8.20;2.30;;;10.20;99.90;;;;;;6001954;23;20198;-76
2022/12/24 08:55:07;;;;;;;8.52;2.50;;;10.20;99.90;;;;;;5958880;24;20206;-77
2022/12/24 08:57:37;;;;;;;5.70;2.50;;;10.20;99.90;;;;;;5985011;24;20195;-76
2022/12/24 09:00:05;;;;;;;6.32;2.92;;;10.20;99.90;;;;;;5985311;24;20298;-76
2022/12/24 09:02:32;;;;;;;12.35;3.50;;;10.10;99.90;;;;;;5982368;23;20190;-76
2022/12/24 09:05:00;;;;;;;8.43;2.55;;;10.10;99.90;;;;;;5983891;23;20195;-76
2022/12/24 09:07:27;;;;;;;9.20;2.70;;;10.20;99.90;;;;;;5988888;23;20214;-76
2022/12/24 09:09:54;;;;;;;9.63;2.95;;;10.20;99.90;;;;;;5981931;24;20195;-76
2022/12/24 09:12:21;;;;;;;8.93;2.30;;;10.20;99.90;;;;;;5981721;24;20201;-76
2022/12/24 09:14:50;;;;;;;10.50;2.50;;;10.20;99.90;;;;;;5981819;24;20228;-76
2022/12/24 09:17:20;;;;;;;7.05;2.72;;;10.20;99.90;;;;;;5997659;23;20221;-77
2022/12/24 09:19:47;;;;;;;6.75;2.72;;;10.30;99.90;;;;;;5979394;23;20190;-76
2022/12/24 09:22:15;;;;;;;6.50;2.25;;;10.40;99.90;;;;;;5959046;24;20210;-76
2022/12/24 09:24:42;;;;;;;6.78;2.85;;;10.50;99.90;;;;;;5984290;24;20253;-76
2022/12/24 09:27:09;;;;;;;6.07;2.75;;;10.60;99.90;;;;;;5983478;23;20251;-76
2022/12/24 09:29:39;;;;;;;9.25;4.00;;;10.80;99.90;;;;;;5983260;24;20518;-76
2022/12/24 09:32:08;;;;;;;6.80;2.20;;;11.00;99.90;;;;;;5983270;24;20253;-77
2022/12/24 09:34:35;;;;;;;6.93;3.00;;;11.40;99.90;;;;;;5982580;24;20564;-76
2022/12/24 09:37:03;;;;;;;6.45;3.33;;;11.70;99.90;;;;;;5997915;23;20197;-77
2022/12/24 09:39:30;;;;;;;10.98;3.35;;;11.90;99.90;;;;;;6009841;23;20273;-77
2022/12/24 09:42:07;;;;;;;7.23;2.70;;;12.20;99.90;;;;;;5982695;23;20275;-77
2022/12/24 09:44:41;;;;;;;9.03;3.37;;;12.50;99.90;;;;;;6008902;23;20425;-76
2022/12/24 09:47:20;;;;;;;9.17;2.83;;;12.80;99.90;;;;;;5976579;24;20839;-76
2022/12/24 09:49:52;;;;;;;5.80;2.20;;;13.20;99.90;;;;;;5994614;24;20964;-76
2022/12/24 09:52:27;;;;;;;4.60;2.20;;;13.60;99.90;;;;;;5996740;24;20481;-77
2022/12/24 09:55:01;;;;;;;9.80;3.40;;;13.70;99.90;;;;;;5958098;23;20966;-77
2022/12/24 09:57:35;;;;;;;6.20;2.50;;;14.10;99.90;;;;;;6024269;23;20432;-77
2022/12/24 10:00:03;;;;;;;4.30;2.27;;;14.30;99.90;;;;;;6015581;23;20469;-77
2022/12/24 10:02:32;;;;;;;4.90;2.40;;;14.60;99.90;;;;;;6012413;23;20433;-77
2022/12/24 10:04:59;;;;;;;6.67;2.90;;;14.90;99.90;;;;;;6012688;23;20417;-77
2022/12/24 10:07:36;;;;;;;4.80;2.60;;;15.20;99.90;;;;;;6012067;23;20432;-76
2022/12/24 10:10:15;;;;;;;7.10;3.00;;;15.10;99.90;;;;;;6011171;23;20507;-75
2022/12/24 10:12:50;;;;;;;6.43;2.53;;;14.80;99.90;;;;;;6011875;23;20446;-76
2022/12/24 10:15:26;;;;;;;6.20;2.97;;;14.40;99.90;;;;;;6003308;23;20425;-76
2022/12/24 10:18:09;;;;;;;8.20;2.50;;;14.30;99.90;;;;;;5992487;23;20467;-76
2022/12/24 10:20:45;;;;;;;6.73;2.90;;;14.50;99.90;;;;;;6011799;23;20522;-76
2022/12/24 10:23:20;;;;;;;8.43;2.63;;;14.70;99.90;;;;;;5963754;23;20792;-76
2022/12/24 10:25:53;;;;;;;7.40;2.90;;;14.90;99.90;;;;;;6010271;23;20599;-76
2022/12/24 10:28:28;;;;;;;8.20;2.70;;;15.00;99.90;;;;;;5986574;23;20426;-76
2022/12/24 10:31:00;;;;;;;10.13;2.90;;;14.80;99.90;;;;;;5986700;23;20882;-76
2022/12/24 10:33:32;;;;;;;9.00;3.00;;;14.60;99.90;;;;;;5992626;23;20523;-76
2022/12/24 10:35:59;;;;;;;9.90;3.10;;;14.20;99.90;;;;;;6009739;23;20424;-76
2022/12/24 10:38:27;;;;;;;12.63;3.43;;;13.90;99.90;;;;;;6010724;23;20964;-76
2022/12/24 10:40:58;;;;;;;9.93;2.83;;;13.60;99.90;;;;;;5984844;23;20542;-75
2022/12/24 10:43:28;;;;;;;6.73;2.87;;;13.40;99.90;;;;;;5991263;23;20753;-75
2022/12/24 10:45:58;;;;;;;9.70;2.93;;;13.10;99.90;;;;;;5982928;24;20453;-76
2022/12/24 10:48:32;;;;;;;8.27;3.00;;;12.90;99.90;;;;;;5984733;23;20529;-76
2022/12/24 10:51:04;;;;;;;9.03;2.90;;;12.80;99.90;;;;;;5999641;23;20436;-76
2022/12/24 10:53:40;;;;;;;9.93;3.20;;;12.80;99.90;;;;;;5993588;23;20451;-76
2022/12/24 10:56:10;;;;;;;8.47;2.90;;;12.80;99.90;;;;;;5983945;23;20436;-76
2022/12/24 10:58:42;;;;;;;9.70;3.50;;;12.80;99.90;;;;;;5961341;23;20498;-76
2022/12/24 11:01:09;;;;;;;6.03;2.67;;;12.80;99.90;;;;;;5983787;24;20478;-76
2022/12/24 11:03:38;;;;;;;6.00;2.47;;;12.70;99.90;;;;;;5984430;23;21034;-76
2022/12/24 11:06:09;;;;;;;7.50;2.70;;;12.70;99.90;;;;;;5988966;23;20435;-76
2022/12/24 11:08:38;;;;;;;8.50;2.80;;;12.60;99.90;;;;;;5957375;24;20427;-76
2022/12/24 11:11:07;;;;;;;8.80;2.80;;;12.80;99.90;;;;;;5982284;24;20432;-76
2022/12/24 11:13:37;;;;;;;8.33;3.47;;;12.60;99.90;;;;;;5992421;24;20497;-76
2022/12/24 11:16:08;;;;;;;7.57;3.03;;;12.70;99.90;;;;;;6006397;23;20422;-76
2022/12/24 11:18:44;;;;;;;10.67;3.37;;;12.70;99.90;;;;;;6012847;23;20452;-76
2022/12/24 11:21:11;;;;;;;7.57;3.00;;;12.70;99.90;;;;;;5987612;23;20512;-76
2022/12/24 11:23:39;;;;;;;7.67;2.80;;;12.70;99.90;;;;;;5986018;23;20426;-76
2022/12/24 11:26:06;;;;;;;16.23;7.80;;;12.80;99.90;;;;;;5986024;23;20509;-76
2022/12/24 11:28:33;;;;;;;11.00;4.47;;;12.80;99.90;;;;;;6002215;23;20446;-76
2022/12/24 11:31:05;;;;;;;10.33;3.47;;;12.80;99.90;;;;;;6010683;23;20522;-76
2022/12/24 11:33:48;;;;;;;6.93;2.40;;;12.80;99.90;;;;;;6010541;23;20520;-76
2022/12/24 11:36:25;;;;;;;8.83;3.17;;;12.80;99.90;;;;;;5985857;23;20449;-76
2022/12/24 11:38:54;;;;;;;8.53;3.50;;;12.70;99.90;;;;;;6011105;23;20488;-76
2022/12/24 11:41:21;;;;;;;10.03;3.40;;;12.70;99.90;;;;;;6010914;23;20458;-76
2022/12/24 11:43:51;;;;;;;8.20;2.90;;;12.70;99.90;;;;;;6009534;23;20601;-76
2022/12/24 11:46:36;;;;;;;10.10;3.10;;;12.60;99.90;;;;;;6004075;23;20445;-76
2022/12/24 11:49:23;;;;;;;9.50;3.42;;;12.50;99.90;;;;;;6011205;23;20728;-76
2022/12/24 11:52:20;;;;;;;8.10;3.30;;;12.50;99.90;;;;;;6010080;23;20222;-76
2022/12/24 11:55:07;;;;;;;7.93;3.40;;;12.40;99.90;;;;;;6010842;23;20437;-76
2022/12/24 11:57:43;;;;;;;9.18;3.38;;;12.30;99.90;;;;;;6011130;23;20201;-76
2022/12/24 12:00:12;;;;;;;9.70;2.83;;;12.20;99.90;;;;;;6010094;23;20280;-76
2022/12/24 12:02:41;;;;;;;10.83;3.33;;;12.20;99.90;;;;;;6010349;23;20215;-76
2022/12/24 12:05:15;;;;;;;7.85;3.20;;;12.20;99.90;;;;;;6010496;23;20496;-76
2022/12/24 12:07:45;;;;;;;11.32;3.25;;;12.10;99.90;;;;;;6009282;23;20194;-76
2022/12/24 12:10:18;;;;;;;9.13;3.20;;;12.10;99.90;;;;;;5984916;23;20202;-76
2022/12/24 12:12:49;;;;;;;10.38;3.20;;;12.10;99.90;;;;;;5983211;24;20191;-76
2022/12/24 12:15:20;;;;;;;8.38;3.55;;;12.10;99.90;;;;;;5982303;24;20278;-76
2022/12/24 12:17:51;;;;;;;7.77;2.90;;;12.10;99.90;;;;;;5981982;24;20191;-76
2022/12/24 12:20:23;;;;;;;8.45;3.20;;;12.10;99.90;;;;;;5981248;23;20488;-76
2022/12/24 12:22:56;;;;;;;9.45;3.90;;;12.10;99.90;;;;;;5956362;24;20231;-76
2022/12/24 12:25:30;;;;;;;12.10;3.63;;;12.10;99.90;;;;;;5981560;24;20222;-75
2022/12/24 12:28:00;;;;;;;7.27;3.47;;;12.00;99.90;;;;;;5981273;24;20532;-76
2022/12/24 12:30:29;;;;;;;9.48;3.88;;;12.10;99.90;;;;;;5982051;23;20512;-76
2022/12/24 12:33:01;;;;;;;7.57;3.47;;;12.10;99.90;;;;;;5983164;23;20597;-76
2022/12/24 12:35:32;;;;;;;8.80;3.60;;;12.10;99.90;;;;;;5984390;24;20226;-76
2022/12/24 12:38:03;;;;;;;10.50;3.60;;;12.10;99.90;;;;;;5958953;24;20441;-76
2022/12/24 12:40:48;;;;;;;8.00;3.83;;;12.10;99.90;;;;;;5984134;23;20441;-76
2022/12/24 12:43:28;;;;;;;9.93;4.50;;;12.20;99.90;;;;;;5984389;24;20414;-76
2022/12/24 12:46:00;;;;;;;11.23;4.30;;;12.20;99.90;;;;;;5959827;24;20433;-76
2022/12/24 12:48:47;;;;;;;9.83;3.40;;;12.20;99.90;;;;;;5988341;23;20462;-76
2022/12/24 12:51:25;;;;;;;9.75;4.18;;;12.10;99.90;;;;;;5990484;23;20866;-76
2022/12/24 12:54:07;;;;;;;10.27;3.92;;;12.10;99.90;;;;;;5983230;24;20541;-76
2022/12/24 12:56:36;;;;;;;13.13;3.37;;;12.10;99.90;;;;;;5983538;24;20286;-76
2022/12/24 12:59:08;;;;;;;9.90;3.60;;;12.20;99.90;;;;;;5958440;24;20446;-76
2022/12/24 13:01:45;;;;;;;7.50;3.57;;;12.30;99.90;;;;;;6011773;23;20305;-76
2022/12/24 13:04:52;;;;;;;11.43;3.73;;;12.30;99.90;;;;;;5987361;23;20439;-76
2022/12/24 13:07:35;;;;;;;9.93;3.90;;;12.30;99.90;;;;;;6012143;23;20413;-77
2022/12/24 13:10:31;;;;;;;7.13;3.43;;;12.40;99.90;;;;;;6002300;23;20541;-76
2022/12/24 13:13:28;;;;;;;7.90;3.80;;;12.50;99.90;;;;;;5984403;24;20468;-77